createdAt,value
2023-05-23T00:01:38.568Z,100.00
2023-05-23T00:04:09.084Z,100.00
2023-05-23T00:06:39.061Z,100.00
2023-05-23T00:09:10.163Z,100.00
2023-05-23T00:11:39.354Z,100.00
2023-05-23T00:14:08.822Z,100.00
2023-05-23T00:16:44.185Z,100.00
2023-05-23T00:19:16.328Z,100.00
2023-05-23T00:21:49.626Z,100.00
2023-05-23T00:24:20.528Z,100.00
2023-05-23T00:26:50.115Z,100.00
2023-05-23T00:29:19.833Z,100.00
2023-05-23T00:31:50.091Z,100.00
2023-05-23T00:34:19.658Z,100.00
2023-05-23T00:36:50.630Z,100.00
2023-05-23T00:39:21.173Z,100.00
2023-05-23T00:41:53.803Z,100.00
2023-05-23T00:44:22.822Z,100.00
2023-05-23T00:46:57.653Z,100.00
2023-05-23T00:49:29.730Z,100.00
2023-05-23T00:51:58.675Z,100.00
2023-05-23T00:54:31.276Z,100.00
2023-05-23T00:57:02.496Z,100.00
2023-05-23T00:59:32.454Z,100.00
2023-05-23T01:02:06.206Z,100.00
2023-05-23T01:04:36.142Z,100.00
2023-05-23T01:07:05.560Z,100.00
2023-05-23T01:09:35.013Z,100.00
2023-05-23T01:12:20.021Z,100.00
2023-05-23T01:14:56.890Z,100.00
2023-05-23T01:17:36.639Z,100.00
2023-05-23T01:20:11.074Z,100.00
2023-05-23T01:22:56.127Z,100.00
2023-05-23T01:25:36.337Z,100.00
2023-05-23T01:28:09.188Z,100.00
2023-05-23T01:30:42.294Z,100.00
2023-05-23T01:33:12.699Z,100.00
2023-05-23T01:35:43.852Z,100.00
2023-05-23T01:38:12.930Z,100.00
2023-05-23T01:40:42.344Z,100.00
2023-05-23T01:43:13.505Z,100.00
2023-05-23T01:45:43.974Z,100.00
2023-05-23T01:48:15.240Z,100.00
2023-05-23T01:50:46.610Z,100.00
2023-05-23T01:53:18.978Z,100.00
2023-05-23T01:55:48.138Z,100.00
2023-05-23T01:58:18.791Z,100.00
2023-05-23T02:00:48.233Z,100.00
2023-05-23T02:03:18.052Z,100.00
2023-05-23T02:05:47.196Z,100.00
2023-05-23T02:08:16.018Z,100.00
2023-05-23T02:10:45.434Z,100.00
2023-05-23T02:13:14.810Z,100.00
2023-05-23T02:15:45.435Z,100.00
2023-05-23T02:18:14.364Z,100.00
2023-05-23T02:20:45.198Z,100.00
2023-05-23T02:23:15.693Z,100.00
2023-05-23T02:25:44.612Z,100.00
2023-05-23T02:28:14.006Z,100.00
2023-05-23T02:30:43.021Z,100.00
2023-05-23T02:33:16.838Z,100.00
2023-05-23T02:35:45.799Z,100.00
2023-05-23T02:38:14.897Z,100.00
2023-05-23T02:40:44.348Z,100.00
2023-05-23T02:43:13.592Z,100.00
2023-05-23T02:45:42.835Z,100.00
2023-05-23T02:48:12.196Z,100.00
2023-05-23T02:50:43.193Z,100.00
2023-05-23T02:53:12.505Z,100.00
2023-05-23T02:55:43.273Z,100.00
2023-05-23T02:58:12.595Z,100.00
2023-05-23T03:00:43.828Z,100.00
2023-05-23T03:03:13.016Z,100.00
2023-05-23T03:05:43.413Z,100.00
2023-05-23T03:08:12.800Z,100.00
2023-05-23T03:10:46.293Z,100.00
2023-05-23T03:13:15.189Z,100.00
2023-05-23T03:15:44.175Z,100.00
2023-05-23T03:18:13.639Z,100.00
2023-05-23T03:20:46.729Z,100.00
2023-05-23T03:23:15.612Z,100.00
2023-05-23T03:25:44.990Z,100.00
2023-05-23T03:28:13.848Z,100.00
2023-05-23T03:30:43.179Z,100.00
2023-05-23T03:33:12.308Z,100.00
2023-05-23T03:35:41.244Z,100.00
2023-05-23T03:38:13.087Z,100.00
2023-05-23T03:40:41.958Z,100.00
2023-05-23T03:43:11.221Z,100.00
2023-05-23T03:45:43.076Z,100.00
2023-05-23T03:48:16.849Z,100.00
2023-05-23T03:50:46.022Z,100.00
2023-05-23T03:53:16.455Z,100.00
2023-05-23T03:55:47.702Z,100.00
2023-05-23T03:58:18.982Z,100.00
2023-05-23T04:00:50.994Z,100.00
2023-05-23T04:03:20.383Z,100.00
2023-05-23T04:05:50.064Z,100.00
2023-05-23T04:08:22.246Z,100.00
2023-05-23T04:10:53.012Z,100.00
2023-05-23T04:13:24.963Z,100.00
2023-05-23T04:15:56.514Z,100.00
2023-05-23T04:18:28.584Z,100.00
2023-05-23T04:20:57.799Z,100.00
2023-05-23T04:23:30.697Z,100.00
2023-05-23T04:26:00.447Z,100.00
2023-05-23T04:28:35.934Z,100.00
2023-05-23T04:31:05.349Z,100.00
2023-05-23T04:33:36.945Z,100.00
2023-05-23T04:36:09.318Z,100.00
2023-05-23T04:38:42.085Z,100.00
2023-05-23T04:41:13.463Z,100.00
2023-05-23T04:44:00.198Z,100.00
2023-05-23T04:46:34.277Z,100.00
2023-05-23T04:49:17.192Z,100.00
2023-05-23T04:51:46.344Z,100.00
2023-05-23T04:54:23.043Z,100.00
2023-05-23T04:56:52.082Z,100.00
2023-05-23T04:59:22.448Z,100.00
2023-05-23T05:01:53.739Z,100.00
2023-05-23T05:04:23.461Z,100.00
2023-05-23T05:06:53.463Z,100.00
2023-05-23T05:09:23.645Z,100.00
2023-05-23T05:11:53.128Z,100.00
2023-05-23T05:14:22.783Z,100.00
2023-05-23T05:16:51.883Z,100.00
2023-05-23T05:19:24.889Z,100.00
2023-05-23T05:21:53.734Z,100.00
2023-05-23T05:24:24.360Z,100.00
2023-05-23T05:26:53.765Z,100.00
2023-05-23T05:29:23.040Z,100.00
2023-05-23T05:31:52.771Z,100.00
2023-05-23T05:34:22.811Z,100.00
2023-05-23T05:36:55.994Z,100.00
2023-05-23T05:39:28.953Z,100.00
2023-05-23T05:41:58.224Z,100.00
2023-05-23T05:44:27.201Z,100.00
2023-05-23T05:46:56.238Z,100.00
2023-05-23T05:49:25.487Z,100.00
2023-05-23T05:51:54.384Z,100.00
2023-05-23T05:54:23.263Z,100.00
2023-05-23T05:56:56.714Z,100.00
2023-05-23T05:59:26.349Z,100.00
2023-05-23T06:01:56.993Z,100.00
2023-05-23T06:04:26.046Z,100.00
2023-05-23T06:06:55.860Z,100.00
2023-05-23T06:09:26.169Z,100.00
2023-05-23T06:23:54.221Z,100.00
2023-05-23T06:26:23.187Z,100.00
2023-05-23T06:28:54.778Z,100.00
2023-05-23T06:31:23.644Z,100.00
2023-05-23T06:33:57.357Z,100.00
2023-05-23T06:36:28.225Z,100.00
2023-05-23T06:39:00.968Z,100.00
2023-05-23T06:41:29.795Z,100.00
2023-05-23T06:43:59.132Z,100.00
2023-05-23T06:46:31.731Z,100.00
2023-05-23T06:49:13.915Z,100.00
2023-05-23T06:51:45.114Z,100.00
2023-05-23T06:54:15.874Z,100.00
2023-05-23T06:56:46.297Z,100.00
2023-05-23T06:59:15.122Z,100.00
2023-05-23T07:01:44.082Z,100.00
2023-05-23T07:04:15.522Z,100.00
2023-05-23T07:06:44.477Z,100.00
2023-05-23T07:09:15.029Z,99.81
2023-05-23T07:11:43.788Z,98.83
2023-05-23T09:50:33.456Z,62.90
2023-05-23T10:03:23.678Z,61.81
2023-05-23T10:06:01.515Z,60.26
2023-05-23T10:08:35.386Z,60.89
2023-05-23T10:11:51.999Z,60.48
2023-05-23T10:14:20.793Z,59.65
2023-05-23T10:16:59.360Z,61.20
2023-05-23T10:19:37.101Z,61.38
2023-05-23T10:22:11.345Z,62.38
2023-05-23T10:24:43.669Z,62.53
2023-05-23T10:27:13.216Z,60.64
2023-05-23T10:29:42.108Z,61.24
2023-05-23T10:32:16.074Z,61.98
2023-05-23T10:34:54.544Z,61.54
2023-05-23T10:37:31.004Z,60.93
2023-05-23T10:40:06.172Z,60.24
2023-05-23T10:42:46.609Z,61.03
2023-05-23T10:45:16.458Z,61.75
2023-05-23T10:47:48.987Z,60.73
2023-05-23T10:50:33.460Z,60.16
2023-05-23T10:53:05.083Z,61.04
2023-05-23T10:55:34.962Z,60.17
2023-05-23T10:58:17.106Z,59.86
2023-05-23T11:00:54.386Z,60.94
2023-05-23T11:03:54.092Z,60.63
2023-05-23T11:06:35.482Z,61.84
2023-05-23T11:09:08.227Z,61.79
2023-05-23T11:11:57.955Z,60.78
2023-05-23T11:14:34.151Z,60.30
2023-05-23T11:17:16.986Z,59.62
2023-05-23T11:19:58.061Z,58.72
2023-05-23T11:22:30.828Z,57.68
2023-05-23T11:25:01.697Z,55.21
2023-05-23T11:27:34.715Z,56.39
2023-05-23T11:30:07.954Z,54.40
2023-05-23T11:32:37.736Z,55.88
2023-05-23T11:35:08.782Z,56.98
2023-05-23T11:37:39.056Z,58.06
2023-05-23T11:40:31.214Z,58.14
2023-05-23T11:43:00.753Z,57.60
2023-05-23T11:45:33.316Z,55.88
2023-05-23T11:48:08.994Z,57.36
2023-05-23T11:50:46.133Z,55.50
2023-05-23T11:53:17.624Z,55.55
2023-05-23T11:55:55.529Z,56.82
2023-05-23T11:58:28.806Z,56.89
2023-05-23T12:01:01.224Z,57.46
2023-05-23T12:03:30.230Z,56.27
2023-05-23T12:05:59.824Z,56.07
2023-05-23T12:08:28.765Z,55.73
2023-05-23T12:11:01.336Z,55.48
2023-05-23T12:13:31.256Z,55.30
2023-05-23T12:16:01.647Z,54.34
2023-05-23T12:18:32.099Z,55.25
2023-05-23T12:21:06.676Z,54.91
2023-05-23T12:23:36.720Z,55.79
2023-05-23T12:26:10.130Z,55.66
2023-05-23T12:28:40.473Z,55.40
2023-05-23T12:31:13.437Z,53.73
2023-05-23T12:33:43.968Z,53.86
2023-05-23T12:36:12.991Z,55.15
2023-05-23T12:38:45.616Z,55.81
2023-05-23T12:41:19.653Z,55.88
2023-05-23T12:43:52.734Z,55.28
2023-05-23T12:46:25.176Z,52.63
2023-05-23T12:48:54.429Z,53.38
2023-05-23T12:51:23.317Z,52.92
2023-05-23T12:53:52.553Z,53.00
2023-05-23T12:56:27.893Z,53.57
2023-05-23T12:58:57.153Z,55.34
2023-05-23T13:01:26.033Z,53.24
2023-05-23T13:03:54.879Z,54.21
2023-05-23T13:06:23.691Z,55.42
2023-05-23T13:08:55.272Z,54.46
2023-05-23T13:11:24.186Z,54.64
2023-05-23T13:13:54.413Z,54.79
2023-05-23T13:16:23.335Z,54.74
2023-05-23T13:18:54.510Z,55.13
2023-05-23T13:21:23.487Z,54.98
2023-05-23T13:23:52.264Z,56.43
2023-05-23T13:26:21.866Z,56.71
2023-05-23T13:28:50.651Z,56.27
2023-05-23T13:31:21.615Z,56.53
2023-05-23T13:33:50.592Z,55.87
2023-05-23T13:36:19.406Z,57.60
2023-05-23T13:38:48.204Z,58.42
2023-05-23T13:41:16.902Z,57.63
2023-05-23T13:43:48.278Z,57.15
2023-05-23T13:46:17.024Z,57.67
2023-05-23T13:48:49.371Z,56.84
2023-05-23T13:51:18.162Z,56.33
2023-05-23T13:53:46.960Z,56.75
2023-05-23T13:56:17.010Z,55.82
2023-05-23T13:58:48.050Z,55.82
2023-05-23T14:01:19.278Z,56.91
2023-05-23T14:03:49.387Z,57.67
2023-05-23T14:06:18.362Z,57.72
2023-05-23T14:08:47.168Z,56.71
2023-05-23T14:11:15.963Z,56.91
2023-05-23T14:13:44.664Z,56.84
2023-05-23T14:16:13.436Z,57.45
2023-05-23T14:18:42.317Z,56.58
2023-05-23T14:21:12.630Z,56.25
2023-05-23T14:23:41.597Z,56.84
2023-05-23T14:26:10.547Z,56.74
2023-05-23T14:28:41.630Z,56.74
2023-05-23T14:31:10.667Z,55.18
2023-05-23T14:33:39.545Z,55.56
2023-05-23T14:36:08.871Z,55.82
2023-05-23T14:38:41.916Z,56.10
2023-05-23T14:41:10.669Z,56.64
2023-05-23T14:43:39.496Z,56.41
2023-05-23T14:46:09.168Z,57.18
2023-05-23T14:48:38.078Z,57.15
2023-05-23T14:51:07.224Z,56.26
2023-05-23T14:53:35.998Z,56.36
2023-05-23T14:56:08.563Z,55.94
2023-05-23T14:58:37.330Z,56.09
2023-05-23T15:01:06.233Z,55.73
2023-05-23T15:03:35.127Z,55.40
2023-05-23T15:06:04.503Z,55.68
2023-05-23T15:08:36.285Z,54.80
2023-05-23T15:11:05.028Z,55.97
2023-05-23T15:13:35.353Z,55.99
2023-05-23T15:16:04.329Z,54.80
2023-05-23T15:18:41.515Z,53.95
2023-05-23T15:21:10.856Z,54.89
2023-05-23T15:23:39.716Z,53.86
2023-05-23T15:26:08.514Z,55.46
2023-05-23T15:28:38.800Z,57.38
2023-05-23T15:31:07.655Z,55.88
2023-05-23T15:33:38.890Z,56.22
2023-05-23T15:36:08.288Z,56.29
2023-05-23T15:38:39.658Z,55.21
2023-05-23T15:41:08.492Z,54.70
2023-05-23T15:43:38.681Z,54.44
2023-05-23T15:46:07.538Z,55.61
2023-05-23T15:48:36.344Z,55.68
2023-05-23T15:51:05.350Z,55.63
2023-05-23T15:53:40.131Z,57.59
2023-05-23T16:11:44.166Z,57.30
2023-05-23T16:14:12.924Z,56.94
2023-05-23T16:16:41.817Z,56.89
2023-05-23T16:19:13.207Z,57.30
2023-05-23T16:21:44.275Z,58.37
2023-05-23T16:24:17.102Z,57.10
2023-05-23T16:26:47.238Z,57.33
2023-05-23T16:29:18.372Z,57.38
2023-05-23T16:31:47.200Z,56.57
2023-05-23T16:34:16.144Z,56.55
2023-05-23T16:36:44.954Z,56.42
2023-05-23T16:39:14.306Z,57.27
2023-05-23T16:41:43.067Z,56.76
2023-05-23T16:44:13.205Z,56.19
2023-05-23T16:46:42.371Z,57.09
2023-05-23T16:49:11.436Z,56.27
2023-05-23T16:51:40.289Z,56.10
2023-05-23T16:54:09.589Z,56.70
2023-05-23T16:56:39.220Z,57.19
2023-05-23T16:59:08.083Z,56.47
2023-05-23T17:01:38.319Z,56.50
2023-05-23T17:04:07.048Z,56.32
2023-05-23T17:06:37.219Z,55.92
2023-05-23T17:09:06.353Z,56.21
2023-05-23T17:11:35.106Z,56.96
2023-05-23T17:14:03.873Z,56.37
2023-05-23T17:16:35.250Z,56.86
2023-05-23T17:19:05.755Z,56.88
2023-05-23T17:21:37.772Z,56.15
2023-05-23T17:24:06.858Z,56.48
2023-05-23T17:26:35.695Z,56.71
2023-05-23T17:29:04.489Z,56.39
2023-05-23T17:31:33.340Z,57.96
2023-05-23T17:34:02.135Z,57.37
2023-05-23T17:36:37.127Z,57.68
2023-05-23T17:39:08.662Z,58.46
2023-05-23T17:41:40.417Z,58.37
2023-05-23T17:44:11.966Z,59.00
2023-05-23T17:46:41.156Z,59.22
2023-05-23T17:49:10.062Z,59.18
2023-05-23T17:51:40.145Z,59.15
2023-05-23T17:54:08.984Z,59.55
2023-05-23T17:56:37.804Z,59.71
2023-05-23T17:59:09.499Z,59.80
2023-05-23T18:01:38.309Z,60.21
2023-05-23T18:04:07.209Z,60.20
2023-05-23T18:06:36.063Z,59.52
2023-05-23T18:09:06.288Z,60.39
2023-05-23T18:11:35.147Z,60.12
2023-05-23T18:14:07.248Z,60.37
2023-05-23T18:16:36.769Z,61.03
2023-05-23T18:19:06.113Z,61.74
2023-05-23T18:21:35.650Z,62.09
2023-05-23T18:24:09.085Z,61.60
2023-05-23T18:26:42.236Z,61.91
2023-05-23T18:29:10.854Z,62.98
2023-05-23T18:31:39.557Z,63.00
2023-05-23T18:34:08.449Z,62.99
2023-05-23T18:36:37.887Z,63.50
2023-05-23T18:39:08.515Z,63.78
2023-05-23T18:46:30.166Z,65.31
2023-05-23T18:48:58.960Z,65.56
2023-05-23T18:51:27.828Z,66.28
2023-05-23T18:53:56.972Z,66.41
2023-05-23T18:56:27.161Z,66.40
2023-05-23T18:58:56.055Z,66.07
2023-05-23T19:01:27.128Z,65.94
2023-05-23T19:03:57.849Z,66.55
2023-05-23T19:06:27.711Z,66.83
2023-05-23T19:08:56.533Z,67.06
2023-05-23T19:11:26.917Z,67.64
2023-05-23T19:13:55.712Z,68.08
2023-05-23T19:16:24.523Z,67.93
2023-05-23T19:18:54.386Z,68.90
2023-05-23T19:21:23.541Z,69.74
2023-05-23T19:23:52.359Z,70.46
2023-05-23T19:26:21.086Z,70.53
2023-05-23T19:28:51.219Z,71.43
2023-05-23T19:31:20.033Z,71.89
2023-05-23T19:33:48.851Z,72.37
2023-05-23T19:36:17.607Z,72.34
2023-05-23T19:38:46.302Z,72.23
2023-05-23T19:41:15.045Z,72.34
2023-05-23T19:43:43.916Z,72.50
2023-05-23T19:46:16.164Z,72.69
2023-05-23T19:48:45.038Z,72.82
2023-05-23T19:56:09.810Z,73.76
2023-05-23T19:58:38.629Z,74.00
2023-05-23T20:01:07.412Z,75.24
2023-05-23T20:03:37.721Z,75.92
2023-05-23T20:11:07.617Z,76.89
2023-05-23T20:13:39.440Z,77.41
2023-05-23T20:20:36.258Z,79.02
2023-05-23T20:23:07.600Z,79.43
2023-05-23T20:25:36.428Z,79.69
2023-05-23T20:28:05.289Z,80.54
2023-05-23T20:30:34.518Z,80.75
2023-05-23T20:33:03.838Z,81.71
2023-05-23T20:35:32.692Z,81.82
2023-05-23T20:38:02.893Z,82.13
2023-05-23T20:40:33.633Z,82.16
2023-05-23T20:43:04.849Z,82.27
2023-05-23T20:45:34.237Z,82.18
2023-05-23T20:48:03.040Z,83.68
2023-05-23T20:50:33.753Z,83.67
2023-05-23T20:53:04.080Z,84.33
2023-05-23T21:10:08.242Z,85.96
2023-05-23T21:12:36.954Z,86.05
2023-05-23T21:15:06.407Z,86.38
2023-05-23T21:17:35.136Z,86.75
2023-05-23T21:20:05.570Z,87.12
2023-05-23T21:22:34.328Z,87.76
2023-05-23T21:25:07.427Z,87.73
2023-05-23T21:27:38.861Z,88.28
2023-05-23T21:30:08.935Z,88.48
2023-05-23T21:32:37.631Z,88.76
2023-05-23T21:35:07.363Z,88.81
2023-05-23T21:37:36.158Z,90.06
2023-05-23T21:40:07.772Z,91.32
2023-05-23T21:42:36.439Z,90.98
2023-05-23T21:45:05.854Z,90.72
2023-05-23T21:47:34.625Z,90.75
2023-05-23T21:50:04.267Z,90.51
2023-05-23T21:52:33.087Z,90.46
2023-05-23T21:55:04.101Z,90.16
2023-05-23T21:57:36.455Z,90.74
2023-05-23T22:00:12.309Z,90.61
2023-05-23T22:02:44.526Z,90.94
2023-05-23T22:05:13.569Z,91.08
2023-05-23T22:07:42.315Z,91.13
2023-05-23T22:10:11.576Z,90.93
2023-05-23T22:12:41.773Z,91.22
2023-05-23T22:15:11.277Z,91.25
2023-05-23T22:17:43.281Z,91.48
2023-05-23T22:20:16.742Z,91.38
2023-05-23T22:22:47.971Z,91.31
2023-05-23T22:25:16.923Z,91.26
2023-05-23T22:27:46.975Z,90.93
2023-05-23T22:30:15.934Z,90.94
2023-05-23T22:32:44.660Z,90.88
2023-05-23T22:35:13.387Z,91.85
2023-05-23T22:37:42.080Z,92.90
2023-05-23T22:40:11.235Z,94.16
2023-05-23T22:42:40.475Z,94.86
2023-05-23T22:45:11.634Z,94.87
2023-05-23T22:47:41.663Z,95.86
2023-05-23T22:50:11.535Z,96.05
2023-05-23T22:52:40.456Z,95.91
2023-05-23T22:55:10.005Z,95.82
2023-05-23T22:57:38.760Z,95.69
2023-05-23T23:00:08.956Z,95.61
2023-05-23T23:02:39.123Z,95.61
2023-05-23T23:05:11.260Z,95.64
2023-05-23T23:07:43.176Z,95.44
2023-05-23T23:10:14.218Z,95.17
2023-05-23T23:12:43.037Z,95.84
2023-05-23T23:15:12.054Z,95.63
2023-05-23T23:17:42.189Z,95.56
2023-05-23T23:20:12.642Z,95.82
2023-05-23T23:22:41.845Z,95.64
2023-05-23T23:25:11.009Z,95.75
2023-05-23T23:27:40.024Z,95.89
2023-05-23T23:30:10.054Z,95.96
2023-05-23T23:32:38.851Z,96.10
2023-05-23T23:35:10.501Z,95.76
2023-05-23T23:37:39.632Z,95.39
2023-05-23T23:40:10.034Z,95.22
2023-05-23T23:42:38.864Z,95.49
2023-05-23T23:45:08.492Z,96.09
2023-05-23T23:47:37.237Z,96.24
2023-05-23T23:50:06.888Z,96.31
2023-05-23T23:52:38.965Z,96.52
2023-05-23T23:55:08.092Z,97.35
2023-05-23T23:57:39.014Z,97.33
